sensor_id;sensor_type;location;lat;lon;timestamp;P1;durP1;ratioP1;P2;durP2;ratioP2
9306;SDS011;4691;47.612;7.610;2022-08-20T00:00:41;43.05;;;30.38;;
9306;SDS011;4691;47.612;7.610;2022-08-20T00:03:24;38.53;;;29.73;;
9306;SDS011;4691;47.612;7.610;2022-08-20T00:06:02;47.28;;;30.08;;
9306;SDS011;4691;47.612;7.610;2022-08-20T00:08:33;39.40;;;28.42;;
9306;SDS011;4691;47.612;7.610;2022-08-20T00:11:06;37.78;;;28.20;;
9306;SDS011;4691;47.612;7.610;2022-08-20T00:13:44;38.13;;;29.27;;
9306;SDS011;4691;47.612;7.610;2022-08-20T00:16:18;39.17;;;27.67;;
9306;SDS011;4691;47.612;7.610;2022-08-20T00:19:08;39.20;;;30.20;;
9306;SDS011;4691;47.612;7.610;2022-08-20T00:21:39;36.78;;;27.88;;
9306;SDS011;4691;47.612;7.610;2022-08-20T00:24:08;40.20;;;27.45;;
9306;SDS011;4691;47.612;7.610;2022-08-20T00:26:37;40.10;;;28.20;;
9306;SDS011;4691;47.612;7.610;2022-08-20T00:29:17;41.47;;;28.77;;
9306;SDS011;4691;47.612;7.610;2022-08-20T00:31:50;40.70;;;29.10;;
9306;SDS011;4691;47.612;7.610;2022-08-20T00:34:31;41.28;;;29.85;;
9306;SDS011;4691;47.612;7.610;2022-08-20T00:37:06;39.70;;;30.35;;
9306;SDS011;4691;47.612;7.610;2022-08-20T00:39:41;40.50;;;29.02;;
9306;SDS011;4691;47.612;7.610;2022-08-20T00:42:09;42.17;;;31.55;;
9306;SDS011;4691;47.612;7.610;2022-08-20T00:44:35;42.00;;;30.55;;
9306;SDS011;4691;47.612;7.610;2022-08-20T00:47:01;40.53;;;30.40;;
9306;SDS011;4691;47.612;7.610;2022-08-20T00:49:55;43.15;;;31.80;;
9306;SDS011;4691;47.612;7.610;2022-08-20T00:52:24;44.58;;;33.33;;
9306;SDS011;4691;47.612;7.610;2022-08-20T00:55:04;45.55;;;32.85;;
9306;SDS011;4691;47.612;7.610;2022-08-20T00:57:41;44.33;;;31.10;;
9306;SDS011;4691;47.612;7.610;2022-08-20T01:00:28;39.88;;;30.95;;
9306;SDS011;4691;47.612;7.610;2022-08-20T01:03:04;39.63;;;30.95;;
9306;SDS011;4691;47.612;7.610;2022-08-20T01:05:40;49.33;;;33.78;;
9306;SDS011;4691;47.612;7.610;2022-08-20T01:08:20;48.45;;;33.17;;
9306;SDS011;4691;47.612;7.610;2022-08-20T01:10:51;39.75;;;31.20;;
9306;SDS011;4691;47.612;7.610;2022-08-20T01:13:32;44.28;;;29.83;;
9306;SDS011;4691;47.612;7.610;2022-08-20T01:16:13;50.22;;;33.13;;
9306;SDS011;4691;47.612;7.610;2022-08-20T01:18:54;38.85;;;30.10;;
9306;SDS011;4691;47.612;7.610;2022-08-20T01:21:22;40.72;;;29.55;;
9306;SDS011;4691;47.612;7.610;2022-08-20T01:26:39;41.47;;;31.13;;
9306;SDS011;4691;47.612;7.610;2022-08-20T01:29:25;37.72;;;29.27;;
9306;SDS011;4691;47.612;7.610;2022-08-20T01:31:55;43.13;;;32.13;;
9306;SDS011;4691;47.612;7.610;2022-08-20T01:34:28;37.90;;;30.40;;
9306;SDS011;4691;47.612;7.610;2022-08-20T01:37:11;40.08;;;29.83;;
9306;SDS011;4691;47.612;7.610;2022-08-20T01:39:37;42.65;;;30.60;;
9306;SDS011;4691;47.612;7.610;2022-08-20T01:45:04;38.25;;;31.35;;
9306;SDS011;4691;47.612;7.610;2022-08-20T01:47:33;38.33;;;30.83;;
9306;SDS011;4691;47.612;7.610;2022-08-20T01:50:13;38.05;;;29.35;;
9306;SDS011;4691;47.612;7.610;2022-08-20T01:53:00;43.10;;;31.50;;
9306;SDS011;4691;47.612;7.610;2022-08-20T01:55:47;42.40;;;31.55;;
9306;SDS011;4691;47.612;7.610;2022-08-20T01:58:23;40.30;;;31.38;;
9306;SDS011;4691;47.612;7.610;2022-08-20T02:00:59;36.60;;;28.70;;
9306;SDS011;4691;47.612;7.610;2022-08-20T02:03:38;39.03;;;29.55;;
9306;SDS011;4691;47.612;7.610;2022-08-20T02:06:29;40.50;;;31.88;;
9306;SDS011;4691;47.612;7.610;2022-08-20T02:09:01;41.97;;;30.95;;
9306;SDS011;4691;47.612;7.610;2022-08-20T02:11:45;39.67;;;31.20;;
9306;SDS011;4691;47.612;7.610;2022-08-20T02:14:26;38.60;;;29.42;;
9306;SDS011;4691;47.612;7.610;2022-08-20T02:19:52;38.30;;;29.05;;
9306;SDS011;4691;47.612;7.610;2022-08-20T02:22:43;39.70;;;28.85;;
9306;SDS011;4691;47.612;7.610;2022-08-20T02:25:11;34.80;;;28.00;;
9306;SDS011;4691;47.612;7.610;2022-08-20T02:27:43;36.92;;;28.30;;
9306;SDS011;4691;47.612;7.610;2022-08-20T02:30:18;36.20;;;28.83;;
9306;SDS011;4691;47.612;7.610;2022-08-20T02:32:52;38.08;;;28.33;;
9306;SDS011;4691;47.612;7.610;2022-08-20T02:35:27;38.78;;;28.30;;
9306;SDS011;4691;47.612;7.610;2022-08-20T02:38:03;35.00;;;27.75;;
9306;SDS011;4691;47.612;7.610;2022-08-20T02:40:31;32.42;;;26.20;;
9306;SDS011;4691;47.612;7.610;2022-08-20T02:43:10;34.20;;;26.35;;
9306;SDS011;4691;47.612;7.610;2022-08-20T02:45:39;32.20;;;25.92;;
9306;SDS011;4691;47.612;7.610;2022-08-20T02:48:09;31.95;;;26.55;;
9306;SDS011;4691;47.612;7.610;2022-08-20T02:50:59;34.22;;;27.42;;
9306;SDS011;4691;47.612;7.610;2022-08-20T02:53:28;29.77;;;24.48;;
9306;SDS011;4691;47.612;7.610;2022-08-20T02:56:10;31.92;;;25.23;;
9306;SDS011;4691;47.612;7.610;2022-08-20T02:58:41;29.15;;;24.10;;
9306;SDS011;4691;47.612;7.610;2022-08-20T03:01:24;32.20;;;22.98;;
9306;SDS011;4691;47.612;7.610;2022-08-20T03:03:54;23.75;;;21.00;;
9306;SDS011;4691;47.612;7.610;2022-08-20T03:06:37;28.20;;;19.05;;
9306;SDS011;4691;47.612;7.610;2022-08-20T03:09:09;27.30;;;21.25;;
9306;SDS011;4691;47.612;7.610;2022-08-20T03:11:40;24.23;;;19.30;;
9306;SDS011;4691;47.612;7.610;2022-08-20T03:14:10;28.35;;;20.15;;
9306;SDS011;4691;47.612;7.610;2022-08-20T03:16:41;25.23;;;20.13;;
9306;SDS011;4691;47.612;7.610;2022-08-20T03:19:22;30.00;;;20.92;;
9306;SDS011;4691;47.612;7.610;2022-08-20T03:21:53;23.10;;;18.77;;
9306;SDS011;4691;47.612;7.610;2022-08-20T03:24:22;21.33;;;19.08;;
9306;SDS011;4691;47.612;7.610;2022-08-20T03:26:53;29.42;;;21.80;;
9306;SDS011;4691;47.612;7.610;2022-08-20T03:29:21;26.95;;;21.15;;
9306;SDS011;4691;47.612;7.610;2022-08-20T03:31:52;27.85;;;21.05;;
9306;SDS011;4691;47.612;7.610;2022-08-20T03:34:25;25.63;;;19.92;;
9306;SDS011;4691;47.612;7.610;2022-08-20T03:36:55;31.10;;;20.13;;
9306;SDS011;4691;47.612;7.610;2022-08-20T03:39:24;30.55;;;21.25;;
9306;SDS011;4691;47.612;7.610;2022-08-20T03:41:55;26.60;;;21.80;;
9306;SDS011;4691;47.612;7.610;2022-08-20T03:44:23;28.48;;;22.20;;
9306;SDS011;4691;47.612;7.610;2022-08-20T03:47:03;29.30;;;20.80;;
9306;SDS011;4691;47.612;7.610;2022-08-20T03:49:34;24.30;;;21.00;;
9306;SDS011;4691;47.612;7.610;2022-08-20T03:52:09;27.63;;;21.65;;
9306;SDS011;4691;47.612;7.610;2022-08-20T03:54:35;29.67;;;20.67;;
9306;SDS011;4691;47.612;7.610;2022-08-20T03:57:01;24.83;;;20.63;;
9306;SDS011;4691;47.612;7.610;2022-08-20T03:59:30;26.65;;;21.55;;
9306;SDS011;4691;47.612;7.610;2022-08-20T04:02:03;25.63;;;21.90;;
9306;SDS011;4691;47.612;7.610;2022-08-20T04:04:32;27.70;;;21.23;;
9306;SDS011;4691;47.612;7.610;2022-08-20T04:07:07;27.70;;;21.52;;
9306;SDS011;4691;47.612;7.610;2022-08-20T04:09:56;28.77;;;22.85;;
9306;SDS011;4691;47.612;7.610;2022-08-20T04:12:25;28.40;;;21.15;;
9306;SDS011;4691;47.612;7.610;2022-08-20T04:15:05;25.02;;;21.48;;
9306;SDS011;4691;47.612;7.610;2022-08-20T04:17:39;29.08;;;21.23;;
9306;SDS011;4691;47.612;7.610;2022-08-20T04:20:11;28.58;;;22.35;;
9306;SDS011;4691;47.612;7.610;2022-08-20T04:22:47;24.75;;;21.70;;
9306;SDS011;4691;47.612;7.610;2022-08-20T04:25:28;27.90;;;21.80;;
9306;SDS011;4691;47.612;7.610;2022-08-20T04:28:01;26.25;;;21.08;;
9306;SDS011;4691;47.612;7.610;2022-08-20T04:30:29;27.90;;;21.98;;
9306;SDS011;4691;47.612;7.610;2022-08-20T04:32:58;25.58;;;20.58;;
9306;SDS011;4691;47.612;7.610;2022-08-20T04:35:42;25.93;;;21.00;;
9306;SDS011;4691;47.612;7.610;2022-08-20T04:38:17;28.45;;;21.25;;
9306;SDS011;4691;47.612;7.610;2022-08-20T04:41:06;24.98;;;19.63;;
9306;SDS011;4691;47.612;7.610;2022-08-20T04:43:39;26.77;;;20.58;;
9306;SDS011;4691;47.612;7.610;2022-08-20T04:46:06;24.85;;;20.98;;
9306;SDS011;4691;47.612;7.610;2022-08-20T04:48:38;26.48;;;22.13;;
9306;SDS011;4691;47.612;7.610;2022-08-20T04:51:16;25.80;;;20.88;;
9306;SDS011;4691;47.612;7.610;2022-08-20T04:53:53;24.77;;;20.33;;
9306;SDS011;4691;47.612;7.610;2022-08-20T04:56:24;25.55;;;20.88;;
9306;SDS011;4691;47.612;7.610;2022-08-20T04:59:04;27.42;;;19.65;;
9306;SDS011;4691;47.612;7.610;2022-08-20T05:01:35;25.10;;;19.60;;
9306;SDS011;4691;47.612;7.610;2022-08-20T05:04:10;27.15;;;21.02;;
9306;SDS011;4691;47.612;7.610;2022-08-20T05:06:46;24.65;;;21.33;;
9306;SDS011;4691;47.612;7.610;2022-08-20T05:09:13;24.38;;;21.15;;
9306;SDS011;4691;47.612;7.610;2022-08-20T05:11:38;26.55;;;20.35;;
9306;SDS011;4691;47.612;7.610;2022-08-20T05:14:04;27.48;;;21.23;;
9306;SDS011;4691;47.612;7.610;2022-08-20T05:16:50;24.83;;;21.45;;
9306;SDS011;4691;47.612;7.610;2022-08-20T05:19:21;29.85;;;23.63;;
9306;SDS011;4691;47.612;7.610;2022-08-20T05:21:47;29.42;;;24.60;;
9306;SDS011;4691;47.612;7.610;2022-08-20T05:24:12;28.20;;;22.90;;
9306;SDS011;4691;47.612;7.610;2022-08-20T05:26:38;30.55;;;23.70;;
9306;SDS011;4691;47.612;7.610;2022-08-20T05:29:04;28.00;;;22.85;;
9306;SDS011;4691;47.612;7.610;2022-08-20T05:31:30;29.20;;;22.75;;
9306;SDS011;4691;47.612;7.610;2022-08-20T05:33:57;32.08;;;22.52;;
9306;SDS011;4691;47.612;7.610;2022-08-20T05:36:30;31.95;;;24.67;;
9306;SDS011;4691;47.612;7.610;2022-08-20T05:38:55;30.88;;;23.45;;
9306;SDS011;4691;47.612;7.610;2022-08-20T05:41:29;32.28;;;23.73;;
9306;SDS011;4691;47.612;7.610;2022-08-20T05:43:54;29.17;;;23.83;;
9306;SDS011;4691;47.612;7.610;2022-08-20T05:46:41;33.40;;;25.38;;
9306;SDS011;4691;47.612;7.610;2022-08-20T05:49:10;33.80;;;24.50;;
9306;SDS011;4691;47.612;7.610;2022-08-20T05:51:48;32.47;;;24.70;;
9306;SDS011;4691;47.612;7.610;2022-08-20T05:54:14;27.75;;;23.25;;
9306;SDS011;4691;47.612;7.610;2022-08-20T05:56:40;30.70;;;23.33;;
9306;SDS011;4691;47.612;7.610;2022-08-20T05:59:06;31.67;;;25.95;;
9306;SDS011;4691;47.612;7.610;2022-08-20T06:01:33;37.60;;;26.67;;
9306;SDS011;4691;47.612;7.610;2022-08-20T06:04:00;30.63;;;24.23;;
9306;SDS011;4691;47.612;7.610;2022-08-20T06:06:45;36.80;;;26.73;;
9306;SDS011;4691;47.612;7.610;2022-08-20T06:09:10;37.72;;;27.17;;
9306;SDS011;4691;47.612;7.610;2022-08-20T06:11:39;36.70;;;27.30;;
9306;SDS011;4691;47.612;7.610;2022-08-20T06:14:04;35.97;;;27.90;;
9306;SDS011;4691;47.612;7.610;2022-08-20T06:16:29;43.17;;;27.35;;
9306;SDS011;4691;47.612;7.610;2022-08-20T06:18:55;36.30;;;26.92;;
9306;SDS011;4691;47.612;7.610;2022-08-20T06:21:21;34.40;;;26.05;;
9306;SDS011;4691;47.612;7.610;2022-08-20T06:23:46;31.65;;;24.73;;
9306;SDS011;4691;47.612;7.610;2022-08-20T06:26:12;33.97;;;25.40;;
9306;SDS011;4691;47.612;7.610;2022-08-20T06:28:38;30.75;;;23.63;;
9306;SDS011;4691;47.612;7.610;2022-08-20T06:31:03;34.70;;;26.15;;
9306;SDS011;4691;47.612;7.610;2022-08-20T06:33:29;37.28;;;26.15;;
9306;SDS011;4691;47.612;7.610;2022-08-20T06:35:54;33.22;;;23.95;;
9306;SDS011;4691;47.612;7.610;2022-08-20T06:38:20;30.55;;;24.50;;
9306;SDS011;4691;47.612;7.610;2022-08-20T06:40:46;33.17;;;24.73;;
9306;SDS011;4691;47.612;7.610;2022-08-20T06:43:11;31.95;;;24.52;;
9306;SDS011;4691;47.612;7.610;2022-08-20T06:45:37;27.20;;;22.67;;
9306;SDS011;4691;47.612;7.610;2022-08-20T06:48:09;32.53;;;23.55;;
9306;SDS011;4691;47.612;7.610;2022-08-20T06:50:37;29.65;;;23.50;;
9306;SDS011;4691;47.612;7.610;2022-08-20T06:53:06;28.80;;;23.77;;
9306;SDS011;4691;47.612;7.610;2022-08-20T06:55:33;26.38;;;22.20;;
9306;SDS011;4691;47.612;7.610;2022-08-20T06:58:00;27.90;;;22.25;;
9306;SDS011;4691;47.612;7.610;2022-08-20T07:00:28;30.48;;;22.45;;
9306;SDS011;4691;47.612;7.610;2022-08-20T07:02:55;36.70;;;26.30;;
9306;SDS011;4691;47.612;7.610;2022-08-20T07:05:24;30.83;;;24.37;;
9306;SDS011;4691;47.612;7.610;2022-08-20T07:07:50;33.28;;;25.25;;
9306;SDS011;4691;47.612;7.610;2022-08-20T07:10:16;32.25;;;24.15;;
9306;SDS011;4691;47.612;7.610;2022-08-20T07:12:43;32.85;;;25.23;;
9306;SDS011;4691;47.612;7.610;2022-08-20T07:15:09;35.20;;;26.13;;
9306;SDS011;4691;47.612;7.610;2022-08-20T07:17:38;38.38;;;27.35;;
9306;SDS011;4691;47.612;7.610;2022-08-20T07:20:05;41.70;;;27.52;;
9306;SDS011;4691;47.612;7.610;2022-08-20T07:22:32;34.03;;;24.15;;
9306;SDS011;4691;47.612;7.610;2022-08-20T07:25:00;30.40;;;24.20;;
9306;SDS011;4691;47.612;7.610;2022-08-20T07:29:55;31.17;;;24.05;;
9306;SDS011;4691;47.612;7.610;2022-08-20T07:32:40;35.28;;;25.45;;
9306;SDS011;4691;47.612;7.610;2022-08-20T07:35:07;35.63;;;26.25;;
9306;SDS011;4691;47.612;7.610;2022-08-20T07:37:37;30.92;;;24.63;;
9306;SDS011;4691;47.612;7.610;2022-08-20T07:40:05;36.83;;;25.88;;
9306;SDS011;4691;47.612;7.610;2022-08-20T07:42:35;27.15;;;22.30;;
9306;SDS011;4691;47.612;7.610;2022-08-20T07:45:03;28.92;;;21.52;;
9306;SDS011;4691;47.612;7.610;2022-08-20T07:47:34;26.38;;;20.88;;
9306;SDS011;4691;47.612;7.610;2022-08-20T07:50:01;30.27;;;22.83;;
9306;SDS011;4691;47.612;7.610;2022-08-20T07:52:34;30.45;;;21.73;;
9306;SDS011;4691;47.612;7.610;2022-08-20T07:55:06;26.60;;;20.85;;
9306;SDS011;4691;47.612;7.610;2022-08-20T07:57:36;23.77;;;20.25;;
9306;SDS011;4691;47.612;7.610;2022-08-20T08:00:03;26.95;;;21.05;;
9306;SDS011;4691;47.612;7.610;2022-08-20T08:02:33;21.90;;;17.80;;
9306;SDS011;4691;47.612;7.610;2022-08-20T08:04:59;24.67;;;15.80;;
9306;SDS011;4691;47.612;7.610;2022-08-20T08:07:25;19.70;;;14.95;;
9306;SDS011;4691;47.612;7.610;2022-08-20T08:09:52;17.80;;;14.38;;
9306;SDS011;4691;47.612;7.610;2022-08-20T08:12:19;16.90;;;12.73;;
9306;SDS011;4691;47.612;7.610;2022-08-20T08:14:46;16.30;;;13.75;;
9306;SDS011;4691;47.612;7.610;2022-08-20T08:17:21;15.65;;;12.82;;
9306;SDS011;4691;47.612;7.610;2022-08-20T08:19:47;16.42;;;13.20;;
9306;SDS011;4691;47.612;7.610;2022-08-20T08:22:15;15.95;;;11.52;;
9306;SDS011;4691;47.612;7.610;2022-08-20T08:24:43;13.57;;;12.05;;
9306;SDS011;4691;47.612;7.610;2022-08-20T08:27:14;15.32;;;12.95;;
9306;SDS011;4691;47.612;7.610;2022-08-20T08:29:47;10.85;;;9.00;;
9306;SDS011;4691;47.612;7.610;2022-08-20T08:32:13;11.90;;;9.00;;
9306;SDS011;4691;47.612;7.610;2022-08-20T08:34:50;9.30;;;6.82;;
9306;SDS011;4691;47.612;7.610;2022-08-20T08:37:22;8.60;;;5.22;;
9306;SDS011;4691;47.612;7.610;2022-08-20T08:39:48;6.13;;;5.07;;
9306;SDS011;4691;47.612;7.610;2022-08-20T08:42:25;9.15;;;5.00;;
9306;SDS011;4691;47.612;7.610;2022-08-20T08:44:58;5.82;;;4.60;;
9306;SDS011;4691;47.612;7.610;2022-08-20T08:47:33;5.93;;;4.10;;
9306;SDS011;4691;47.612;7.610;2022-08-20T08:50:09;5.15;;;3.90;;
9306;SDS011;4691;47.612;7.610;2022-08-20T08:52:46;5.38;;;4.38;;
9306;SDS011;4691;47.612;7.610;2022-08-20T08:55:16;4.97;;;4.25;;
9306;SDS011;4691;47.612;7.610;2022-08-20T09:05:15;4.50;;;3.90;;
9306;SDS011;4691;47.612;7.610;2022-08-20T09:08:01;7.10;;;4.30;;
9306;SDS011;4691;47.612;7.610;2022-08-20T09:11:03;8.43;;;2.80;;
9306;SDS011;4691;47.612;7.610;2022-08-20T09:13:34;3.35;;;2.65;;
9306;SDS011;4691;47.612;7.610;2022-08-20T09:16:15;1.10;;;0.90;;
9306;SDS011;4691;47.612;7.610;2022-08-20T09:18:43;1.20;;;1.08;;
9306;SDS011;4691;47.612;7.610;2022-08-20T09:21:47;2.13;;;1.80;;
9306;SDS011;4691;47.612;7.610;2022-08-20T09:24:24;2.72;;;1.95;;
9306;SDS011;4691;47.612;7.610;2022-08-20T09:26:56;2.00;;;1.50;;
9306;SDS011;4691;47.612;7.610;2022-08-20T09:33:08;3.35;;;2.00;;
9306;SDS011;4691;47.612;7.610;2022-08-20T09:35:43;4.60;;;2.15;;
9306;SDS011;4691;47.612;7.610;2022-08-20T09:38:35;2.80;;;2.00;;
9306;SDS011;4691;47.612;7.610;2022-08-20T09:41:33;2.20;;;1.98;;
9306;SDS011;4691;47.612;7.610;2022-08-20T09:44:11;3.13;;;2.60;;
9306;SDS011;4691;47.612;7.610;2022-08-20T09:50:13;5.82;;;3.40;;
9306;SDS011;4691;47.612;7.610;2022-08-20T09:52:43;6.40;;;3.15;;
9306;SDS011;4691;47.612;7.610;2022-08-20T09:57:38;4.95;;;2.95;;
9306;SDS011;4691;47.612;7.610;2022-08-20T10:00:21;4.82;;;3.20;;
9306;SDS011;4691;47.612;7.610;2022-08-20T10:02:46;3.15;;;2.55;;
9306;SDS011;4691;47.612;7.610;2022-08-20T10:05:15;5.90;;;3.20;;
9306;SDS011;4691;47.612;7.610;2022-08-20T10:07:40;2.27;;;2.00;;
9306;SDS011;4691;47.612;7.610;2022-08-20T10:17:08;2.67;;;1.40;;
9306;SDS011;4691;47.612;7.610;2022-08-20T10:23:06;1.85;;;1.20;;
9306;SDS011;4691;47.612;7.610;2022-08-20T10:25:52;1.27;;;1.17;;
9306;SDS011;4691;47.612;7.610;2022-08-20T10:28:20;1.30;;;1.20;;
9306;SDS011;4691;47.612;7.610;2022-08-20T10:40:12;1.80;;;1.40;;
9306;SDS011;4691;47.612;7.610;2022-08-20T10:42:39;3.33;;;1.40;;
9306;SDS011;4691;47.612;7.610;2022-08-20T10:58:03;1.92;;;1.50;;
9306;SDS011;4691;47.612;7.610;2022-08-20T11:00:42;1.17;;;1.00;;
9306;SDS011;4691;47.612;7.610;2022-08-20T11:03:50;3.17;;;1.40;;
9306;SDS011;4691;47.612;7.610;2022-08-20T11:06:18;6.28;;;1.30;;
9306;SDS011;4691;47.612;7.610;2022-08-20T11:15:34;2.92;;;1.10;;
9306;SDS011;4691;47.612;7.610;2022-08-20T11:18:21;1.55;;;0.82;;
9306;SDS011;4691;47.612;7.610;2022-08-20T11:24:27;0.90;;;0.80;;
9306;SDS011;4691;47.612;7.610;2022-08-20T11:26:54;1.88;;;0.73;;
9306;SDS011;4691;47.612;7.610;2022-08-20T11:29:28;1.60;;;0.93;;
9306;SDS011;4691;47.612;7.610;2022-08-20T11:32:06;1.98;;;0.90;;
9306;SDS011;4691;47.612;7.610;2022-08-20T11:34:41;2.35;;;1.17;;
9306;SDS011;4691;47.612;7.610;2022-08-20T11:40:31;2.10;;;0.88;;
9306;SDS011;4691;47.612;7.610;2022-08-20T11:53:54;2.95;;;0.82;;
9306;SDS011;4691;47.612;7.610;2022-08-20T12:07:50;2.20;;;1.40;;
9306;SDS011;4691;47.612;7.610;2022-08-20T12:32:46;1.15;;;0.90;;
9306;SDS011;4691;47.612;7.610;2022-08-20T12:35:15;0.85;;;0.70;;
9306;SDS011;4691;47.612;7.610;2022-08-20T12:50:07;1.23;;;0.80;;
9306;SDS011;4691;47.612;7.610;2022-08-20T12:52:40;0.98;;;0.85;;
9306;SDS011;4691;47.612;7.610;2022-08-20T12:58:36;0.60;;;0.60;;
9306;SDS011;4691;47.612;7.610;2022-08-20T13:14:39;0.50;;;0.50;;
9306;SDS011;4691;47.612;7.610;2022-08-20T13:17:06;0.85;;;0.70;;
9306;SDS011;4691;47.612;7.610;2022-08-20T13:19:33;0.70;;;0.50;;
9306;SDS011;4691;47.612;7.610;2022-08-20T13:22:00;0.73;;;0.60;;
9306;SDS011;4691;47.612;7.610;2022-08-20T13:24:26;1.13;;;0.50;;
9306;SDS011;4691;47.612;7.610;2022-08-20T13:26:51;1.48;;;0.52;;
9306;SDS011;4691;47.612;7.610;2022-08-20T13:29:17;0.70;;;0.70;;
9306;SDS011;4691;47.612;7.610;2022-08-20T13:31:43;1.00;;;0.90;;
9306;SDS011;4691;47.612;7.610;2022-08-20T13:34:08;3.10;;;0.90;;
9306;SDS011;4691;47.612;7.610;2022-08-20T13:36:34;0.77;;;0.73;;
9306;SDS011;4691;47.612;7.610;2022-08-20T13:39:00;0.85;;;0.70;;
9306;SDS011;4691;47.612;7.610;2022-08-20T13:41:26;1.85;;;0.90;;
9306;SDS011;4691;47.612;7.610;2022-08-20T13:43:51;0.75;;;0.65;;
9306;SDS011;4691;47.612;7.610;2022-08-20T13:46:17;0.70;;;0.70;;
9306;SDS011;4691;47.612;7.610;2022-08-20T13:48:42;1.98;;;1.20;;
9306;SDS011;4691;47.612;7.610;2022-08-20T13:51:07;0.75;;;0.73;;
9306;SDS011;4691;47.612;7.610;2022-08-20T13:53:33;0.90;;;0.80;;
9306;SDS011;4691;47.612;7.610;2022-08-20T13:55:58;1.52;;;0.70;;
9306;SDS011;4691;47.612;7.610;2022-08-20T13:58:24;1.15;;;0.77;;
9306;SDS011;4691;47.612;7.610;2022-08-20T14:00:49;1.08;;;0.63;;
9306;SDS011;4691;47.612;7.610;2022-08-20T14:03:15;0.80;;;0.80;;
9306;SDS011;4691;47.612;7.610;2022-08-20T14:05:41;2.47;;;0.95;;
9306;SDS011;4691;47.612;7.610;2022-08-20T14:08:16;1.75;;;0.82;;
9306;SDS011;4691;47.612;7.610;2022-08-20T14:10:47;1.40;;;0.63;;
9306;SDS011;4691;47.612;7.610;2022-08-20T14:13:18;1.25;;;0.68;;
9306;SDS011;4691;47.612;7.610;2022-08-20T14:15:59;1.35;;;0.70;;
9306;SDS011;4691;47.612;7.610;2022-08-20T14:18:34;1.60;;;0.98;;
9306;SDS011;4691;47.612;7.610;2022-08-20T14:21:08;2.55;;;0.60;;
9306;SDS011;4691;47.612;7.610;2022-08-20T14:23:54;0.90;;;0.70;;
9306;SDS011;4691;47.612;7.610;2022-08-20T14:26:25;0.82;;;0.80;;
9306;SDS011;4691;47.612;7.610;2022-08-20T14:29:03;2.53;;;0.90;;
9306;SDS011;4691;47.612;7.610;2022-08-20T14:31:35;1.38;;;1.00;;
9306;SDS011;4691;47.612;7.610;2022-08-20T14:34:08;0.82;;;0.80;;
9306;SDS011;4691;47.612;7.610;2022-08-20T14:36:39;1.02;;;0.80;;
9306;SDS011;4691;47.612;7.610;2022-08-20T14:39:13;1.92;;;1.00;;
9306;SDS011;4691;47.612;7.610;2022-08-20T14:41:50;1.02;;;0.80;;
9306;SDS011;4691;47.612;7.610;2022-08-20T14:44:18;0.80;;;0.70;;
9306;SDS011;4691;47.612;7.610;2022-08-20T14:46:46;1.17;;;0.82;;
9306;SDS011;4691;47.612;7.610;2022-08-20T14:49:17;4.82;;;0.85;;
9306;SDS011;4691;47.612;7.610;2022-08-20T14:51:49;1.58;;;0.93;;
9306;SDS011;4691;47.612;7.610;2022-08-20T14:54:20;1.63;;;1.00;;
9306;SDS011;4691;47.612;7.610;2022-08-20T14:56:51;1.30;;;1.00;;
9306;SDS011;4691;47.612;7.610;2022-08-20T14:59:19;0.82;;;0.82;;
9306;SDS011;4691;47.612;7.610;2022-08-20T15:02:06;1.67;;;0.70;;
9306;SDS011;4691;47.612;7.610;2022-08-20T15:04:50;0.75;;;0.75;;
9306;SDS011;4691;47.612;7.610;2022-08-20T15:07:27;1.17;;;0.90;;
9306;SDS011;4691;47.612;7.610;2022-08-20T15:10:03;1.73;;;0.80;;
9306;SDS011;4691;47.612;7.610;2022-08-20T15:12:40;0.95;;;0.95;;
9306;SDS011;4691;47.612;7.610;2022-08-20T15:15:21;1.02;;;0.80;;
9306;SDS011;4691;47.612;7.610;2022-08-20T15:18:10;0.93;;;0.82;;
9306;SDS011;4691;47.612;7.610;2022-08-20T15:20:43;1.80;;;0.80;;
9306;SDS011;4691;47.612;7.610;2022-08-20T15:23:35;0.90;;;0.80;;
9306;SDS011;4691;47.612;7.610;2022-08-20T15:26:28;1.77;;;0.70;;
9306;SDS011;4691;47.612;7.610;2022-08-20T15:29:13;2.67;;;0.90;;
9306;SDS011;4691;47.612;7.610;2022-08-20T15:31:54;1.92;;;0.82;;
9306;SDS011;4691;47.612;7.610;2022-08-20T15:34:28;0.82;;;0.80;;
9306;SDS011;4691;47.612;7.610;2022-08-20T16:48:55;2.53;;;1.42;;
9306;SDS011;4691;47.612;7.610;2022-08-20T16:54:57;2.20;;;1.40;;
9306;SDS011;4691;47.612;7.610;2022-08-20T16:57:26;2.95;;;1.20;;
9306;SDS011;4691;47.612;7.610;2022-08-20T17:06:01;2.17;;;1.50;;
9306;SDS011;4691;47.612;7.610;2022-08-20T17:08:55;3.17;;;1.60;;
9306;SDS011;4691;47.612;7.610;2022-08-20T17:15:00;2.95;;;1.45;;
9306;SDS011;4691;47.612;7.610;2022-08-20T17:24:31;2.70;;;1.30;;
9306;SDS011;4691;47.612;7.610;2022-08-20T17:27:32;1.90;;;1.45;;
9306;SDS011;4691;47.612;7.610;2022-08-20T17:56:48;1.92;;;1.73;;
9306;SDS011;4691;47.612;7.610;2022-08-20T17:59:24;2.10;;;1.73;;
9306;SDS011;4691;47.612;7.610;2022-08-20T18:02:14;3.75;;;1.88;;
9306;SDS011;4691;47.612;7.610;2022-08-20T18:04:41;2.28;;;2.08;;
9306;SDS011;4691;47.612;7.610;2022-08-20T18:07:17;2.53;;;1.90;;
9306;SDS011;4691;47.612;7.610;2022-08-20T18:10:16;2.15;;;1.95;;
9306;SDS011;4691;47.612;7.610;2022-08-20T18:13:28;2.00;;;1.75;;
9306;SDS011;4691;47.612;7.610;2022-08-20T18:16:33;1.90;;;1.70;;
9306;SDS011;4691;47.612;7.610;2022-08-20T18:22:31;2.20;;;2.00;;
9306;SDS011;4691;47.612;7.610;2022-08-20T18:28:19;4.22;;;2.40;;
9306;SDS011;4691;47.612;7.610;2022-08-20T18:31:05;3.55;;;2.33;;
9306;SDS011;4691;47.612;7.610;2022-08-20T18:33:50;2.72;;;2.40;;
9306;SDS011;4691;47.612;7.610;2022-08-20T18:38:44;4.80;;;2.70;;
9306;SDS011;4691;47.612;7.610;2022-08-20T18:41:35;3.05;;;2.42;;
9306;SDS011;4691;47.612;7.610;2022-08-20T18:44:09;3.63;;;2.70;;
9306;SDS011;4691;47.612;7.610;2022-08-20T18:49:58;5.07;;;2.72;;
9306;SDS011;4691;47.612;7.610;2022-08-20T18:52:34;5.25;;;3.92;;
9306;SDS011;4691;47.612;7.610;2022-08-20T18:55:04;4.63;;;3.70;;
9306;SDS011;4691;47.612;7.610;2022-08-20T18:57:51;5.97;;;3.00;;
9306;SDS011;4691;47.612;7.610;2022-08-20T19:00:38;3.85;;;3.00;;
9306;SDS011;4691;47.612;7.610;2022-08-20T19:09:17;5.25;;;3.05;;
9306;SDS011;4691;47.612;7.610;2022-08-20T19:20:16;6.88;;;3.20;;
9306;SDS011;4691;47.612;7.610;2022-08-20T19:23:19;8.13;;;3.53;;
9306;SDS011;4691;47.612;7.610;2022-08-20T19:29:16;6.70;;;4.38;;
9306;SDS011;4691;47.612;7.610;2022-08-20T19:31:46;5.65;;;4.72;;
9306;SDS011;4691;47.612;7.610;2022-08-20T19:34:31;6.03;;;3.70;;
9306;SDS011;4691;47.612;7.610;2022-08-20T19:40:37;7.25;;;3.00;;
9306;SDS011;4691;47.612;7.610;2022-08-20T19:43:15;3.17;;;2.50;;
9306;SDS011;4691;47.612;7.610;2022-08-20T19:45:58;2.85;;;2.30;;
9306;SDS011;4691;47.612;7.610;2022-08-20T19:54:54;5.57;;;3.50;;
9306;SDS011;4691;47.612;7.610;2022-08-20T19:57:58;4.28;;;3.33;;
9306;SDS011;4691;47.612;7.610;2022-08-20T20:00:38;5.45;;;3.33;;
9306;SDS011;4691;47.612;7.610;2022-08-20T20:06:32;5.32;;;3.55;;
9306;SDS011;4691;47.612;7.610;2022-08-20T20:09:26;6.68;;;3.20;;
9306;SDS011;4691;47.612;7.610;2022-08-20T20:14:33;3.10;;;2.67;;
9306;SDS011;4691;47.612;7.610;2022-08-20T20:17:03;4.68;;;2.55;;
9306;SDS011;4691;47.612;7.610;2022-08-20T20:23:00;4.22;;;2.50;;
9306;SDS011;4691;47.612;7.610;2022-08-20T20:25:40;4.38;;;2.95;;
9306;SDS011;4691;47.612;7.610;2022-08-20T20:28:43;9.07;;;2.80;;
9306;SDS011;4691;47.612;7.610;2022-08-20T20:32:27;5.10;;;3.17;;
9306;SDS011;4691;47.612;7.610;2022-08-20T20:38:23;10.77;;;4.20;;
9306;SDS011;4691;47.612;7.610;2022-08-20T20:40:51;5.32;;;3.47;;
9306;SDS011;4691;47.612;7.610;2022-08-20T20:43:30;5.72;;;3.88;;
9306;SDS011;4691;47.612;7.610;2022-08-20T20:46:22;6.18;;;4.50;;
9306;SDS011;4691;47.612;7.610;2022-08-20T20:49:11;5.45;;;3.65;;
9306;SDS011;4691;47.612;7.610;2022-08-20T20:51:40;3.88;;;2.35;;
9306;SDS011;4691;47.612;7.610;2022-08-20T20:54:21;6.40;;;2.40;;
9306;SDS011;4691;47.612;7.610;2022-08-20T20:59:39;3.08;;;1.95;;
9306;SDS011;4691;47.612;7.610;2022-08-20T21:02:06;3.38;;;2.08;;
9306;SDS011;4691;47.612;7.610;2022-08-20T21:04:32;6.80;;;2.10;;